Time;durP1;ratioP1;P1;durP2;ratioP2;P2;SDS_P1;SDS_P2;PMS_P1;PMS_P2;Temp;Humidity;BMP_temperature;BMP_pressure;BME280_temperature;BME280_humidity;BME280_pressure;Samples;Min_cycle;Max_cycle;Signal;HPM_P1;HPM_P2
2023/04/24 00:00:06;;;;;;;19.95;14.88;;;;;;;8.39;100.00;99993.16;5105767;28;20028;-76
2023/04/24 00:02:32;;;;;;;20.00;14.70;;;;;;;8.40;100.00;100000.03;5111066;28;20085;-76
2023/04/24 00:05:02;;;;;;;21.17;14.68;;;;;;;8.35;100.00;99992.34;5098198;28;20033;-75
2023/04/24 00:07:27;;;;;;;21.77;15.43;;;;;;;8.36;100.00;100004.44;5101575;28;20099;-75
2023/04/24 00:09:53;;;;;;;22.58;16.23;;;;;;;8.38;100.00;99996.66;5097550;28;20437;-76
2023/04/24 00:12:18;;;;;;;21.73;15.75;;;;;;;8.39;100.00;99993.16;5097916;28;20036;-76
2023/04/24 00:14:43;;;;;;;26.27;15.38;;;;;;;8.39;100.00;100003.53;5089068;28;20491;-76
2023/04/24 00:17:08;;;;;;;24.95;15.98;;;;;;;8.35;100.00;99997.53;5107204;28;20038;-76
2023/04/24 00:19:34;;;;;;;24.23;17.17;;;;;;;8.33;100.00;100001.06;5088842;28;20024;-76
2023/04/24 00:21:59;;;;;;;26.75;17.42;;;;;;;8.30;100.00;99999.41;5099080;28;20155;-76
2023/04/24 00:24:24;;;;;;;28.60;18.38;;;;;;;8.27;100.00;99993.44;5102459;28;20028;-76
2023/04/24 00:26:50;;;;;;;28.15;18.00;;;;;;;8.30;100.00;100007.19;5091273;28;20036;-76
2023/04/24 00:29:15;;;;;;;25.92;17.15;;;;;;;8.22;100.00;100006.56;5101631;28;20043;-76
2023/04/24 00:31:40;;;;;;;27.23;18.38;;;;;;;8.13;100.00;100015.44;5094503;28;21973;-76
2023/04/24 00:34:06;;;;;;;30.88;19.13;;;;;;;8.08;100.00;100011.28;5091367;28;20383;-76
2023/04/24 00:36:32;;;;;;;32.22;19.27;;;;;;;8.01;100.00;100012.31;5091026;28;20032;-76
2023/04/24 00:38:57;;;;;;;33.60;18.95;;;;;;;8.01;100.00;100020.97;5090972;28;20425;-76
2023/04/24 00:41:25;;;;;;;31.15;20.35;;;;;;;8.00;100.00;100021.00;5091552;28;20016;-76
2023/04/24 00:43:51;;;;;;;31.70;20.67;;;;;;;8.00;100.00;100028.78;5089650;28;20487;-76
2023/04/24 00:46:16;;;;;;;34.80;20.65;;;;;;;8.01;100.00;100018.38;5090235;28;20478;-76
2023/04/24 00:48:43;;;;;;;35.97;21.63;;;;;;;7.98;100.00;100021.91;5088921;28;20057;-76
2023/04/24 00:51:08;;;;;;;34.28;21.10;;;;;;;7.94;100.00;100017.66;5090575;28;20023;-76
2023/04/24 00:53:33;;;;;;;35.88;21.65;;;;;;;7.94;100.00;100011.63;5091326;28;20027;-76
2023/04/24 00:55:59;;;;;;;36.70;20.90;;;;;;;7.89;100.00;100018.69;5091743;28;20028;-76
2023/04/24 00:58:26;;;;;;;35.08;21.13;;;;;;;7.95;100.00;100023.72;5090577;28;20089;-76
2023/04/24 01:00:53;;;;;;;40.05;21.27;;;;;;;7.94;100.00;100017.66;5089758;28;20028;-76
2023/04/24 01:03:21;;;;;;;37.45;21.85;;;;;;;7.97;100.00;100016.72;5088994;28;20471;-76
2023/04/24 01:05:47;;;;;;;37.13;22.65;;;;;;;7.91;100.00;100012.56;5091118;28;20031;-76
2023/04/24 01:08:13;;;;;;;38.50;22.23;;;;;;;7.88;100.00;100017.84;5089912;28;20028;-76
2023/04/24 01:10:41;;;;;;;37.78;22.00;;;;;;;7.90;100.00;100022.97;5091442;28;20081;-76
2023/04/24 01:13:08;;;;;;;36.35;23.15;;;;;;;7.87;100.00;100018.72;5089846;28;20570;-76
2023/04/24 01:15:34;;;;;;;41.75;22.45;;;;;;;7.82;100.00;100014.56;5091162;28;20039;-77
2023/04/24 01:17:59;;;;;;;38.65;23.50;;;;;;;7.84;100.00;100023.13;5090409;28;20110;-77
2023/04/24 01:20:26;;;;;;;40.58;23.27;;;;;;;7.82;100.00;100010.22;5092048;28;20103;-79
2023/04/24 01:22:52;;;;;;;41.25;24.58;;;;;;;7.85;100.00;100011.88;5090258;28;20139;-78
2023/04/24 01:25:18;;;;;;;45.00;25.25;;;;;;;7.85;100.00;100006.69;5091684;28;20028;-79
2023/04/24 01:27:43;;;;;;;40.47;25.10;;;;;;;7.83;100.00;100011.06;5090868;28;20169;-79
2023/04/24 01:30:09;;;;;;;43.50;26.05;;;;;;;7.81;100.00;100015.41;5091642;28;20414;-79
2023/04/24 01:32:36;;;;;;;48.80;27.50;;;;;;;7.82;100.00;100012.81;5091452;28;20393;-79
2023/04/24 01:35:02;;;;;;;52.88;28.33;;;;;;;7.75;100.00;100013.84;5093246;28;20053;-79
2023/04/24 01:37:27;;;;;;;51.08;27.40;;;;;;;7.76;100.00;100017.31;5092548;28;20442;-79
2023/04/24 01:39:53;;;;;;;52.13;29.48;;;;;;;7.76;100.00;100019.91;5080981;28;20123;-79
2023/04/24 01:42:18;;;;;;;54.22;30.77;;;;;;;7.75;100.00;100011.25;5094941;28;20027;-79
2023/04/24 01:44:44;;;;;;;58.83;30.10;;;;;;;7.76;100.00;100007.78;5093687;28;20020;-79
2023/04/24 01:47:10;;;;;;;52.25;30.15;;;;;;;7.75;100.00;100013.84;5093433;28;20512;-79
2023/04/24 01:49:37;;;;;;;51.67;30.63;;;;;;;7.70;100.00;100015.69;5095198;28;20065;-80
2023/04/24 01:52:02;;;;;;;54.55;29.90;;;;;;;7.63;100.00;100009.81;5093822;28;20055;-79
2023/04/24 01:54:28;;;;;;;54.33;29.70;;;;;;;7.65;100.00;100013.22;5092970;28;20052;-79
2023/04/24 01:56:53;;;;;;;60.65;31.50;;;;;;;7.59;100.00;100013.38;5093640;28;20071;-79
2023/04/24 01:59:20;;;;;;;56.80;32.70;;;;;;;7.62;100.00;100021.09;5094696;28;20032;-80
2023/04/24 02:01:45;;;;;;;56.05;31.30;;;;;;;7.60;100.00;100019.41;5093899;28;20731;-80
2023/04/24 02:04:11;;;;;;;56.75;30.85;;;;;;;7.61;100.00;100016.75;5095099;28;20066;-80
2023/04/24 02:06:37;;;;;;;58.08;31.75;;;;;;;7.60;100.00;100020.25;5093729;28;20020;-79
2023/04/24 02:09:03;;;;;;;59.47;31.65;;;;;;;7.60;100.00;100022.84;5093526;28;20037;-80
2023/04/24 02:11:28;;;;;;;65.30;34.00;;;;;;;7.60;100.00;100033.22;5094088;28;20055;-79
2023/04/24 02:13:54;;;;;;;57.65;30.90;;;;;;;7.54;100.00;100017.81;5093206;28;20079;-80
2023/04/24 02:16:19;;;;;;;57.85;31.70;;;;;;;7.56;100.00;100029.00;5092275;28;20454;-80
2023/04/24 02:18:45;;;;;;;62.15;30.52;;;;;;;7.51;100.00;100023.06;5092793;28;20454;-80
2023/04/24 02:21:10;;;;;;;58.67;31.70;;;;;;;7.50;100.00;100026.56;5094286;28;20439;-79
2023/04/24 02:23:36;;;;;;;63.45;32.60;;;;;;;7.53;100.00;100041.22;5093529;28;20039;-80
2023/04/24 02:26:01;;;;;;;63.90;31.60;;;;;;;7.53;100.00;100034.28;5093530;28;20028;-80
2023/04/24 02:28:26;;;;;;;61.25;31.95;;;;;;;7.51;100.00;100023.06;5093308;28;20467;-80
2023/04/24 02:30:52;;;;;;;63.22;32.42;;;;;;;7.51;100.00;100025.66;5094070;28;20024;-80
2023/04/24 02:33:17;;;;;;;66.03;31.45;;;;;;;7.49;100.00;100020.53;5093694;28;20028;-80
2023/04/24 02:35:42;;;;;;;63.05;32.38;;;;;;;7.53;100.00;100026.50;5088781;28;20383;-79
2023/04/24 02:38:08;;;;;;;66.57;31.27;;;;;;;7.55;100.00;100024.69;5092276;28;20035;-80
2023/04/24 02:40:33;;;;;;;63.50;32.05;;;;;;;7.53;100.00;100015.28;5094457;28;20101;-80
2023/04/24 02:42:58;;;;;;;66.70;32.80;;;;;;;7.54;100.00;100023.00;5091581;28;20544;-80
2023/04/24 02:45:24;;;;;;;61.13;31.25;;;;;;;7.53;100.00;100025.66;5091752;28;20036;-80
2023/04/24 02:47:49;;;;;;;61.65;31.08;;;;;;;7.52;100.00;100017.00;5092712;28;20040;-80
2023/04/24 02:50:14;;;;;;;59.33;32.08;;;;;;;7.45;100.00;100012.84;5091777;28;20027;-79
2023/04/24 02:52:39;;;;;;;56.25;30.60;;;;;;;7.48;100.00;100010.19;5087606;28;20037;-80
2023/04/24 02:55:05;;;;;;;62.90;31.27;;;;;;;7.44;100.00;100017.19;5094203;28;20110;-80
2023/04/24 02:57:31;;;;;;;60.70;30.65;;;;;;;7.39;100.00;100003.50;5097345;28;20046;-80
2023/04/24 02:59:58;;;;;;;62.92;30.42;;;;;;;7.42;100.00;100012.91;5092307;28;20036;-80
2023/04/24 03:02:23;;;;;;;61.90;31.48;;;;;;;7.40;100.00;100004.34;5093315;28;20111;-80
2023/04/24 03:04:49;;;;;;;60.30;31.77;;;;;;;7.41;100.00;99999.09;5092125;28;20114;-79
2023/04/24 03:07:15;;;;;;;58.47;31.05;;;;;;;7.38;100.00;99995.72;5091021;28;20081;-79
2023/04/24 03:09:42;;;;;;;54.55;30.58;;;;;;;7.37;100.00;100001.81;5092981;28;20463;-79
2023/04/24 03:12:08;;;;;;;58.58;30.55;;;;;;;7.34;100.00;99992.34;5092708;28;20067;-79
2023/04/24 03:14:33;;;;;;;57.00;31.13;;;;;;;7.34;100.00;100007.06;5093407;28;20067;-79
2023/04/24 03:16:58;;;;;;;52.55;29.10;;;;;;;7.27;100.00;100012.38;5093925;28;20032;-79
2023/04/24 03:19:24;;;;;;;57.03;28.73;;;;;;;7.23;100.00;100003.00;5092499;28;20038;-79
2023/04/24 03:21:49;;;;;;;57.13;28.73;;;;;;;7.26;100.00;100012.44;5098146;28;20104;-79
2023/04/24 03:24:17;;;;;;;55.83;29.63;;;;;;;7.24;100.00;100011.63;5091269;28;20027;-79
2023/04/24 03:26:43;;;;;;;50.75;28.20;;;;;;;7.23;100.00;100010.75;5100154;28;20102;-79
2023/04/24 03:29:08;;;;;;;52.90;30.05;;;;;;;7.21;100.00;100015.13;5093420;28;20103;-77
2023/04/24 03:31:33;;;;;;;54.83;29.30;;;;;;;7.23;100.00;100012.50;5096271;28;20110;-79
2023/04/24 03:33:59;;;;;;;54.75;28.17;;;;;;;7.20;100.00;100012.56;5103408;28;20028;-79
2023/04/24 03:36:24;;;;;;;49.03;27.40;;;;;;;7.15;100.00;100002.28;5096679;28;20068;-78
2023/04/24 03:38:49;;;;;;;52.20;27.33;;;;;;;7.20;100.00;100012.56;5076992;27;20063;-78
2023/04/24 03:41:15;;;;;;;52.10;27.60;;;;;;;7.16;100.00;99997.97;5088642;28;20016;-78
2023/04/24 03:43:40;;;;;;;54.22;28.23;;;;;;;7.18;100.00;100003.97;5101881;27;20425;-78
2023/04/24 03:46:06;;;;;;;52.70;27.60;;;;;;;7.24;100.00;100009.03;5092413;28;20086;-78
2023/04/24 03:48:32;;;;;;;53.05;27.35;;;;;;;7.26;100.00;100002.91;5094009;28;20547;-78
2023/04/24 03:50:57;;;;;;;50.55;26.67;;;;;;;7.23;100.00;100008.16;5089051;28;20114;-78
2023/04/24 03:53:22;;;;;;;58.22;27.75;;;;;;;7.23;100.00;99996.97;5091600;28;20024;-78
2023/04/24 03:55:48;;;;;;;48.17;26.83;;;;;;;7.18;100.00;100010.00;5090110;28;20031;-78
2023/04/24 03:58:15;;;;;;;47.25;27.17;;;;;;;7.21;100.00;100012.53;5096215;28;20475;-78
2023/04/24 04:00:41;;;;;;;45.92;25.95;;;;;;;7.19;100.00;100009.13;5098864;28;20359;-78
2023/04/24 04:03:06;;;;;;;52.60;26.27;;;;;;;7.20;100.00;100008.25;5095069;28;20024;-78
2023/04/24 04:05:32;;;;;;;51.70;26.80;;;;;;;7.23;100.00;100010.75;5092364;28;20478;-78
2023/04/24 04:07:57;;;;;;;45.75;25.55;;;;;;;7.21;100.00;100007.34;5093777;28;20040;-78
2023/04/24 04:10:22;;;;;;;49.22;25.90;;;;;;;7.18;100.00;100015.19;5090638;28;20030;-79
2023/04/24 04:12:48;;;;;;;45.83;25.25;;;;;;;7.19;100.00;100011.72;5098348;28;20032;-79
2023/04/24 04:15:14;;;;;;;45.28;25.40;;;;;;;7.18;100.00;100011.75;5091462;28;20082;-78
2023/04/24 04:17:40;;;;;;;45.40;26.23;;;;;;;7.18;100.00;100003.97;5100600;28;20055;-79
2023/04/24 04:20:09;;;;;;;43.90;25.08;;;;;;;7.18;100.00;100009.16;5089400;28;20360;-79
2023/04/24 04:22:34;;;;;;;47.83;26.50;;;;;;;7.18;100.00;100016.94;5091919;28;20038;-80
2023/04/24 04:25:00;;;;;;;45.63;25.40;;;;;;;7.16;100.00;100014.38;5091167;28;20110;-79
2023/04/24 04:27:26;;;;;;;44.42;24.60;;;;;;;7.16;100.00;100022.16;5089717;28;20073;-80
2023/04/24 04:29:52;;;;;;;42.80;24.08;;;;;;;7.10;100.00;100024.03;5092274;28;20020;-79
2023/04/24 04:32:17;;;;;;;41.40;23.65;;;;;;;7.15;100.00;100025.63;5091287;28;20016;-80
2023/04/24 04:34:45;;;;;;;44.53;24.52;;;;;;;7.17;100.00;100023.88;5092059;28;20038;-80
2023/04/24 04:37:11;;;;;;;46.03;25.10;;;;;;;7.15;100.00;100019.59;5091624;28;20403;-80
2023/04/24 04:39:36;;;;;;;48.78;26.55;;;;;;;7.14;100.00;100023.94;5078488;28;20024;-79
2023/04/24 04:42:01;;;;;;;39.90;23.90;;;;;;;7.14;100.00;100028.25;5090301;28;20394;-80
2023/04/24 04:44:27;;;;;;;38.45;24.40;;;;;;;7.11;100.00;100017.97;5091615;28;20032;-80
2023/04/24 04:46:56;;;;;;;40.58;24.17;;;;;;;7.16;100.00;100014.38;5091453;28;20012;-80
2023/04/24 04:49:21;;;;;;;42.75;23.42;;;;;;;7.15;100.00;100020.44;5091057;28;20028;-80
2023/04/24 04:51:47;;;;;;;42.80;23.45;;;;;;;7.20;100.00;100026.38;5089478;28;20093;-80
2023/04/24 04:54:12;;;;;;;43.17;24.88;;;;;;;7.19;100.00;100034.19;5091845;28;20028;-80
2023/04/24 04:56:37;;;;;;;40.70;22.67;;;;;;;7.23;100.00;100034.09;5085354;28;20039;-80
2023/04/24 04:59:02;;;;;;;38.15;22.00;;;;;;;7.26;100.00;100035.78;5083764;28;20028;-80
2023/04/24 05:01:28;;;;;;;37.70;21.48;;;;;;;7.24;100.00;100034.94;5091276;28;20068;-80
2023/04/24 05:03:53;;;;;;;40.08;22.25;;;;;;;7.21;100.00;100035.84;5090883;28;20052;-80
2023/04/24 05:06:18;;;;;;;37.42;21.73;;;;;;;7.22;100.00;100037.56;5092316;28;20031;-80
2023/04/24 05:08:44;;;;;;;35.58;19.60;;;;;;;7.24;100.00;100032.34;5094608;28;20070;-80
2023/04/24 05:11:09;;;;;;;35.90;20.02;;;;;;;7.29;100.00;100038.25;5094056;28;20035;-80
2023/04/24 05:13:35;;;;;;;32.22;19.08;;;;;;;7.22;100.00;100034.97;5094396;28;20036;-80
2023/04/24 05:16:00;;;;;;;31.38;18.17;;;;;;;7.25;100.00;100042.66;5088177;28;20032;-80
2023/04/24 05:18:25;;;;;;;29.13;16.75;;;;;;;7.25;100.00;100045.25;5093224;28;20036;-79
2023/04/24 05:20:51;;;;;;;31.02;16.30;;;;;;;7.22;100.00;100047.94;5093940;28;20043;-79
2023/04/24 05:23:16;;;;;;;25.77;15.02;;;;;;;7.25;100.00;100050.44;5100533;28;20027;-79
2023/04/24 05:25:41;;;;;;;22.58;13.43;;;;;;;7.24;100.00;100061.72;5102393;28;20081;-79
2023/04/24 05:28:06;;;;;;;22.55;12.82;;;;;;;7.19;100.00;100055.81;5091468;28;20047;-79
2023/04/24 05:30:32;;;;;;;19.02;10.80;;;;;;;7.14;100.00;100055.03;5093742;28;20459;-79
2023/04/24 05:32:57;;;;;;;18.13;9.52;;;;;;;7.13;100.00;100062.81;5097665;28;20364;-79
2023/04/24 05:35:23;;;;;;;15.35;6.88;;;;;;;7.12;100.00;100061.97;5094697;28;20111;-78
2023/04/24 05:37:48;;;;;;;10.18;6.38;;;;;;;7.07;100.00;100074.19;5091808;28;20035;-78
2023/04/24 05:40:13;;;;;;;8.88;5.60;;;;;;;7.04;100.00;100076.84;5095630;28;20036;-79
2023/04/24 05:42:39;;;;;;;10.35;5.90;;;;;;;6.97;100.00;100077.88;5094626;28;20079;-78
2023/04/24 05:45:05;;;;;;;10.80;5.97;;;;;;;7.01;100.00;100089.88;5094541;28;20129;-78
2023/04/24 05:47:30;;;;;;;9.32;6.00;;;;;;;6.97;100.00;100083.91;5094260;28;20028;-78
2023/04/24 05:49:59;;;;;;;9.32;5.45;;;;;;;7.03;100.00;100095.91;5094314;28;20031;-78
2023/04/24 05:52:24;;;;;;;13.95;6.18;;;;;;;7.04;100.00;100095.84;5093752;28;20028;-79
2023/04/24 05:54:49;;;;;;;22.48;7.15;;;;;;;7.06;100.00;100107.91;5094059;28;20034;-77
2023/04/24 05:57:15;;;;;;;12.40;6.20;;;;;;;7.06;100.00;100106.16;5093495;28;20020;-78
2023/04/24 05:59:40;;;;;;;14.80;6.68;;;;;;;7.10;100.00;100110.44;5091984;28;20028;-78
2023/04/24 06:02:07;;;;;;;18.08;6.80;;;;;;;7.07;100.00;100109.63;5093307;28;20387;-78
2023/04/24 06:04:32;;;;;;;15.75;6.82;;;;;;;7.12;100.00;100106.03;5094284;28;20020;-78
2023/04/24 06:06:58;;;;;;;15.65;8.23;;;;;;;7.10;100.00;100099.22;5094086;28;20032;-78
2023/04/24 06:09:23;;;;;;;15.18;7.75;;;;;;;7.05;100.00;100112.25;5094907;28;20024;-78
2023/04/24 06:11:52;;;;;;;20.63;8.80;;;;;;;6.96;100.00;100102.91;5114344;28;20088;-78
2023/04/24 06:14:17;;;;;;;14.93;10.00;;;;;;;7.02;100.00;100123.53;5114755;27;20494;-77
2023/04/24 06:16:43;;;;;;;20.45;10.65;;;;;;;6.99;100.00;100117.56;5097434;28;20027;-78
2023/04/24 06:19:08;;;;;;;18.55;10.75;;;;;;;6.98;100.00;100140.03;5092076;28;20102;-77
2023/04/24 06:21:33;;;;;;;26.83;11.45;;;;;;;6.95;100.00;100126.28;5103925;28;20017;-77
2023/04/24 06:23:58;;;;;;;20.30;11.77;;;;;;;6.95;100.00;100145.28;5102313;28;20532;-77
2023/04/24 06:26:27;;;;;;;27.50;12.55;;;;;;;6.90;100.00;100148.81;5101313;28;20026;-77
2023/04/24 06:28:55;;;;;;;26.10;14.38;;;;;;;6.90;100.00;100154.88;5094675;28;20043;-78
2023/04/24 06:31:21;;;;;;;21.10;13.65;;;;;;;6.92;100.00;100170.38;5097199;28;20028;-77
2023/04/24 06:33:46;;;;;;;29.65;15.95;;;;;;;6.95;100.00;100171.19;5093084;28;20032;-77
2023/04/24 06:36:12;;;;;;;32.22;17.23;;;;;;;6.96;100.00;100177.22;5099769;28;20032;-77
2023/04/24 06:38:37;;;;;;;37.92;18.02;;;;;;;6.98;100.00;100202.22;5092427;28;20025;-77
2023/04/24 06:41:04;;;;;;;34.05;17.85;;;;;;;6.95;100.00;100196.25;5089018;28;20120;-77
2023/04/24 06:43:30;;;;;;;36.22;17.48;;;;;;;6.94;100.00;100203.16;5094487;28;20038;-77
2023/04/24 06:45:55;;;;;;;41.30;19.00;;;;;;;6.96;100.00;100210.91;5094103;28;20103;-77
2023/04/24 06:48:21;;;;;;;39.15;19.88;;;;;;;6.94;100.00;100208.34;5092585;28;20066;-77
2023/04/24 06:50:46;;;;;;;42.00;19.95;;;;;;;6.96;100.00;100226.44;5093138;28;20110;-77
2023/04/24 06:53:14;;;;;;;46.33;21.55;;;;;;;6.96;100.00;100227.31;5092779;28;20034;-77
2023/04/24 06:55:39;;;;;;;47.45;22.45;;;;;;;6.94;100.00;100243.78;5101594;28;20110;-78
2023/04/24 06:58:05;;;;;;;48.45;22.13;;;;;;;6.92;100.00;100248.97;5094850;28;20107;-77
2023/04/24 07:00:33;;;;;;;51.28;23.67;;;;;;;6.88;100.00;100246.47;5088804;28;20442;-77
2023/04/24 07:02:59;;;;;;;50.63;22.65;;;;;;;6.88;100.00;100262.88;5092994;28;20054;-78
2023/04/24 07:05:24;;;;;;;49.15;22.50;;;;;;;6.86;100.00;100276.75;5093849;28;20455;-77
2023/04/24 07:07:51;;;;;;;56.05;23.65;;;;;;;6.82;100.00;100275.09;5091680;28;20034;-77
2023/04/24 07:10:20;;;;;;;55.60;23.13;;;;;;;6.88;100.00;100293.13;5089744;28;20020;-77
2023/04/24 07:12:46;;;;;;;56.25;23.38;;;;;;;6.90;100.00;100284.44;5093258;28;20051;-77
2023/04/24 07:15:11;;;;;;;48.40;22.17;;;;;;;6.90;100.00;100314.66;5092674;28;20101;-78
2023/04/24 07:17:38;;;;;;;56.50;23.65;;;;;;;6.92;100.00;100321.53;5092279;28;20116;-77
2023/04/24 07:20:05;;;;;;;52.13;23.20;;;;;;;6.91;100.00;100316.41;5100500;28;20035;-78
2023/04/24 07:22:30;;;;;;;56.83;22.60;;;;;;;6.93;100.00;100322.38;5098125;28;20072;-77
2023/04/24 07:24:55;;;;;;;56.80;22.42;;;;;;;6.97;100.00;100331.84;5098783;28;20379;-77
2023/04/24 07:27:21;;;;;;;52.33;23.65;;;;;;;7.03;100.00;100337.78;5096419;28;20028;-77
2023/04/24 07:29:46;;;;;;;52.53;22.00;;;;;;;7.00;100.00;100335.25;5091009;28;20032;-77
2023/04/24 07:32:11;;;;;;;44.28;21.40;;;;;;;7.02;100.00;100353.34;5092407;28;20016;-78
2023/04/24 07:34:37;;;;;;;51.67;22.75;;;;;;;7.04;100.00;100344.66;5101798;28;20028;-77
2023/04/24 07:37:03;;;;;;;53.05;22.50;;;;;;;7.03;100.00;100368.03;5095881;28;20049;-78
2023/04/24 07:39:29;;;;;;;56.78;20.85;;;;;;;7.01;100.00;100367.19;5089097;28;20028;-77
2023/04/24 07:41:54;;;;;;;45.38;18.90;;;;;;;6.96;100.00;100376.75;5093216;28;20020;-77
2023/04/24 07:44:19;;;;;;;39.20;16.48;;;;;;;6.94;100.00;100389.75;5092800;28;20481;-77
2023/04/24 07:46:45;;;;;;;36.55;15.60;;;;;;;6.97;100.00;100404.41;5100349;28;20031;-77
2023/04/24 07:49:10;;;;;;;39.38;14.85;;;;;;;6.94;100.00;100399.28;5094308;28;20038;-77
2023/04/24 07:51:38;;;;;;;38.67;13.45;;;;;;;7.01;100.00;100413.84;5084703;28;20032;-77
2023/04/24 07:54:05;;;;;;;36.90;13.40;;;;;;;6.93;100.00;100424.34;5085233;28;20107;-76
2023/04/24 07:56:31;;;;;;;40.10;13.90;;;;;;;6.99;100.00;100428.53;5092182;28;20026;-77
2023/04/24 07:58:56;;;;;;;34.10;13.55;;;;;;;6.99;100.00;100434.59;5092212;28;20027;-76
2023/04/24 08:01:21;;;;;;;38.65;14.05;;;;;;;7.01;100.00;100432.84;5097482;28;20024;-76
2023/04/24 08:03:47;;;;;;;36.83;13.73;;;;;;;6.99;100.00;100433.72;5091375;28;20036;-77
2023/04/24 08:06:12;;;;;;;36.38;13.45;;;;;;;7.00;100.00;100435.47;5104007;28;20028;-77
2023/04/24 08:08:38;;;;;;;45.53;14.75;;;;;;;7.10;100.00;100444.81;5105816;28;20076;-76
2023/04/24 08:11:03;;;;;;;45.78;15.05;;;;;;;7.13;100.00;100455.13;5099295;28;20433;-77
2023/04/24 08:13:28;;;;;;;45.58;16.10;;;;;;;7.21;100.00;100466.22;5094552;28;20044;-77
2023/04/24 08:15:54;;;;;;;43.95;17.00;;;;;;;7.20;100.00;100477.47;5102945;28;20052;-78
2023/04/24 08:18:19;;;;;;;47.38;17.48;;;;;;;7.19;100.00;100454.16;5089308;28;20020;-78
2023/04/24 08:20:45;;;;;;;44.13;16.52;;;;;;;7.20;100.00;100472.31;5090042;28;20336;-79
2023/04/24 08:23:10;;;;;;;50.00;16.35;;;;;;;7.25;100.00;100473.06;5090590;28;20024;-77
2023/04/24 08:25:35;;;;;;;52.95;18.15;;;;;;;7.35;100.00;100472.94;5090339;28;20241;-78
2023/04/24 08:28:03;;;;;;;42.83;16.52;;;;;;;7.38;100.00;100488.44;5091545;28;20020;-79
2023/04/24 08:30:29;;;;;;;41.13;14.68;;;;;;;7.37;100.00;100487.59;5092303;28;20073;-78
2023/04/24 08:32:54;;;;;;;35.15;14.18;;;;;;;7.37;100.00;100503.16;5082451;28;20092;-78
2023/04/24 08:35:20;;;;;;;35.78;14.43;;;;;;;7.42;100.00;100506.53;5086916;28;20475;-78
2023/04/24 08:37:45;;;;;;;35.90;12.88;;;;;;;7.40;100.00;100502.25;5084698;28;20152;-79
2023/04/24 08:40:16;;;;;;;42.13;13.52;;;;;;;7.50;100.00;100503.81;5092062;28;20020;-79
2023/04/24 08:42:43;;;;;;;45.45;14.25;;;;;;;7.61;100.00;100517.44;5093995;28;20020;-78
2023/04/24 08:45:12;;;;;;;39.58;13.45;;;;;;;7.64;100.00;100521.75;5097010;28;20371;-79
2023/04/24 08:47:39;;;;;;;39.55;12.18;;;;;;;7.72;100.00;100523.34;5095838;28;20023;-78
2023/04/24 08:50:09;;;;;;;33.55;11.82;;;;;;;7.79;100.00;100524.09;5094834;28;20028;-79
2023/04/24 08:52:35;;;;;;;36.92;11.68;;;;;;;7.99;100.00;100539.31;5095899;28;20052;-78
2023/04/24 08:55:01;;;;;;;44.03;11.75;;;;;;;8.19;100.00;100533.75;5095820;28;20533;-77
2023/04/24 08:57:28;;;;;;;31.00;12.20;;;;;;;8.34;100.00;100538.66;5096319;28;20107;-78
2023/04/24 08:59:54;;;;;;;30.17;11.32;;;;;;;8.23;100.00;100545.78;5096093;28;20031;-78
2023/04/24 09:02:20;;;;;;;23.92;7.85;;;;;;;7.88;100.00;100538.63;5095975;28;20090;-78
2023/04/24 09:04:47;;;;;;;21.13;8.00;;;;;;;7.62;100.00;100557.22;5093893;28;20071;-83
2023/04/24 09:07:17;;;;;;;20.08;7.60;;;;;;;7.49;100.00;100562.63;5093894;28;20064;-78
2023/04/24 09:09:44;;;;;;;20.55;7.15;;;;;;;7.38;100.00;100571.44;5094535;28;20023;-77
2023/04/24 09:12:09;;;;;;;18.48;6.43;;;;;;;7.27;100.00;100556.88;5094030;28;20016;-78
2023/04/24 09:14:39;;;;;;;19.13;6.40;;;;;;;7.18;100.00;100571.72;5094341;28;20467;-78
2023/04/24 09:17:04;;;;;;;24.25;6.88;;;;;;;7.31;100.00;100577.59;5095614;28;20110;-79
2023/04/24 09:19:29;;;;;;;24.40;7.85;;;;;;;7.49;100.00;100570.41;5096117;28;20032;-82
2023/04/24 09:21:55;;;;;;;23.70;6.70;;;;;;;7.67;100.00;100590.00;5095956;28;20012;-79
2023/04/24 09:24:24;;;;;;;25.88;7.90;;;;;;;7.97;100.00;100586.03;5095523;28;20077;-77
2023/04/24 09:26:58;;;;;;;18.83;6.80;;;;;;;8.06;100.00;100599.78;5096160;28;20020;-76
2023/04/24 09:29:24;;;;;;;20.23;6.72;;;;;;;7.90;100.00;100602.59;5092127;28;20085;-77
2023/04/24 09:31:50;;;;;;;16.98;6.28;;;;;;;7.71;100.00;100603.78;5101736;28;21658;-77
2023/04/24 09:34:22;;;;;;;18.30;6.65;;;;;;;7.59;100.00;100619.56;5106267;28;20054;-76
2023/04/24 09:36:47;;;;;;;23.60;5.97;;;;;;;7.32;100.00;100607.81;5095167;28;20020;-76
2023/04/24 09:39:15;;;;;;;20.98;5.90;;;;;;;7.16;100.00;100631.38;5091701;28;20713;-76
2023/04/24 09:41:47;;;;;;;27.88;5.75;;;;;;;7.17;100.00;100624.44;5095307;28;20478;-76
2023/04/24 09:44:15;;;;;;;18.15;5.70;;;;;;;7.17;100.00;100627.91;5099553;28;20433;-78
2023/04/24 09:46:42;;;;;;;22.48;5.40;;;;;;;7.28;100.00;100643.31;5095285;28;20023;-76
2023/04/24 09:49:10;;;;;;;17.27;4.88;;;;;;;7.32;100.00;100644.13;5099734;28;20547;-77
2023/04/24 09:51:37;;;;;;;13.98;4.65;;;;;;;7.43;100.00;100648.31;5100761;28;20140;-77
2023/04/24 09:54:17;;;;;;;22.35;5.20;;;;;;;7.80;100.00;100649.50;5104328;28;20116;-78
2023/04/24 09:56:47;;;;;;;16.42;6.10;;;;;;;8.14;100.00;100658.50;5089340;28;20020;-79
2023/04/24 09:59:14;;;;;;;15.48;5.50;;;;;;;8.42;100.00;100658.91;5099741;28;20068;-78
2023/04/24 10:01:44;;;;;;;17.33;5.65;;;;;;;8.69;100.00;100651.47;5096445;28;20100;-80
2023/04/24 10:04:20;;;;;;;12.88;4.85;;;;;;;8.83;100.00;100665.09;5094575;28;20039;-78
2023/04/24 10:06:48;;;;;;;12.35;4.60;;;;;;;8.87;100.00;100660.69;5089570;28;20456;-79
2023/04/24 10:09:13;;;;;;;16.95;5.63;;;;;;;8.99;100.00;100667.38;5083925;28;20027;-78
2023/04/24 10:11:44;;;;;;;10.45;4.72;;;;;;;9.00;100.00;100662.16;5093935;28;20031;-80
2023/04/24 10:14:18;;;;;;;10.02;3.20;;;;;;;8.97;100.00;100671.75;5083705;28;20044;-77
2023/04/24 10:16:46;;;;;;;11.88;3.28;;;;;;;8.77;100.00;100682.53;5094119;28;20108;-77
2023/04/24 10:19:13;;;;;;;8.40;3.28;;;;;;;8.45;100.00;100665.78;5094251;28;20027;-77
2023/04/24 10:21:42;;;;;;;9.52;3.38;;;;;;;8.23;100.00;100679.97;5094380;28;20028;-77
2023/04/24 10:24:08;;;;;;;9.45;3.17;;;;;;;7.87;100.00;100677.06;5094898;28;20024;-81
2023/04/24 10:26:34;;;;;;;14.32;2.92;;;;;;;7.71;100.00;100684.22;5094383;28;20031;-79
2023/04/24 10:29:00;;;;;;;10.68;3.20;;;;;;;7.65;100.00;100690.38;5092252;28;20468;-80
2023/04/24 10:31:27;;;;;;;12.70;3.33;;;;;;;7.64;100.00;100688.63;5093265;28;20028;-78
2023/04/24 10:33:53;;;;;;;4.85;2.28;;;;;;;7.78;100.00;100700.56;5094952;28;20030;-80
2023/04/24 10:36:22;;;;;;;8.60;2.20;;;;;;;7.73;100.00;100695.44;5093030;28;20032;-81
2023/04/24 10:38:49;;;;;;;10.60;2.50;;;;;;;7.81;100.00;100698.78;5103269;28;20031;-81
2023/04/24 10:41:19;;;;;;;3.22;1.52;;;;;;;7.86;100.00;100712.56;5097846;28;20102;-76
2023/04/24 10:43:45;;;;;;;4.38;1.55;;;;;;;8.01;100.00;100713.22;5096792;28;20027;-76
2023/04/24 10:46:19;;;;;;;6.85;1.80;;;;;;;8.26;100.00;100713.69;5093998;28;20027;-76
2023/04/24 10:48:53;;;;;;;3.72;1.75;;;;;;;8.42;100.00;100710.84;5101322;28;20028;-76
2023/04/24 10:51:22;;;;;;;5.95;1.60;;;;;;;8.60;100.00;100714.00;5096135;27;20028;-76
2023/04/24 10:53:50;;;;;;;5.50;1.92;;;;;;;8.75;100.00;100724.16;5083044;28;20024;-77
2023/04/24 10:56:15;;;;;;;11.02;2.00;;;;;;;9.02;100.00;100722.78;5094363;28;20035;-76
2023/04/24 10:58:44;;;;;;;5.35;1.90;;;;;;;9.09;100.00;100710.50;5092937;28;20024;-76
2023/04/24 11:01:30;;;;;;;4.70;1.95;;;;;;;9.11;100.00;100729.56;5098231;28;20023;-76
2023/04/24 11:03:57;;;;;;;6.35;1.70;;;;;;;8.98;100.00;100728.06;5093799;28;20077;-76
2023/04/24 11:06:35;;;;;;;4.93;1.50;;;;;;;8.95;100.00;100720.34;5090678;28;20022;-76